sensor_id;sensor_type;location;lat;lon;timestamp;temperature;humidity
10964;DHT22;5534;48.784;9.190;2024-01-07T00:01:20;8.40;99.90
10964;DHT22;5534;48.784;9.190;2024-01-07T00:03:46;8.30;99.90
10964;DHT22;5534;48.784;9.190;2024-01-07T00:06:11;8.20;99.90
10964;DHT22;5534;48.784;9.190;2024-01-07T00:08:37;8.20;99.90
10964;DHT22;5534;48.784;9.190;2024-01-07T00:11:03;8.20;99.90
10964;DHT22;5534;48.784;9.190;2024-01-07T00:13:29;8.30;99.90
10964;DHT22;5534;48.784;9.190;2024-01-07T00:15:55;8.20;99.90
10964;DHT22;5534;48.784;9.190;2024-01-07T00:18:21;8.20;99.90
10964;DHT22;5534;48.784;9.190;2024-01-07T00:20:47;8.30;99.90
10964;DHT22;5534;48.784;9.190;2024-01-07T00:23:13;8.30;99.90
10964;DHT22;5534;48.784;9.190;2024-01-07T00:25:39;8.20;99.90
10964;DHT22;5534;48.784;9.190;2024-01-07T00:28:05;8.30;99.90
10964;DHT22;5534;48.784;9.190;2024-01-07T00:30:30;8.20;99.90
10964;DHT22;5534;48.784;9.190;2024-01-07T00:32:56;8.20;99.90
10964;DHT22;5534;48.784;9.190;2024-01-07T00:35:22;8.20;99.90
10964;DHT22;5534;48.784;9.190;2024-01-07T00:37:48;8.20;99.90
10964;DHT22;5534;48.784;9.190;2024-01-07T00:40:13;8.20;99.90
10964;DHT22;5534;48.784;9.190;2024-01-07T00:42:39;8.30;99.90
10964;DHT22;5534;48.784;9.190;2024-01-07T00:45:05;8.20;99.90
10964;DHT22;5534;48.784;9.190;2024-01-07T00:47:31;8.20;99.90
10964;DHT22;5534;48.784;9.190;2024-01-07T00:49:57;8.20;99.90
10964;DHT22;5534;48.784;9.190;2024-01-07T00:52:23;8.20;99.90
10964;DHT22;5534;48.784;9.190;2024-01-07T00:54:49;8.20;99.90
10964;DHT22;5534;48.784;9.190;2024-01-07T00:57:17;8.20;99.90
10964;DHT22;5534;48.784;9.190;2024-01-07T00:59:43;8.30;99.90
10964;DHT22;5534;48.784;9.190;2024-01-07T01:02:09;8.30;99.90
10964;DHT22;5534;48.784;9.190;2024-01-07T01:04:38;8.40;99.90
10964;DHT22;5534;48.784;9.190;2024-01-07T01:07:04;8.30;99.90
10964;DHT22;5534;48.784;9.190;2024-01-07T01:09:30;8.40;99.90
10964;DHT22;5534;48.784;9.190;2024-01-07T01:11:55;8.30;99.90
10964;DHT22;5534;48.784;9.190;2024-01-07T01:14:21;8.20;99.90
10964;DHT22;5534;48.784;9.190;2024-01-07T01:16:47;8.20;99.90
10964;DHT22;5534;48.784;9.190;2024-01-07T01:19:13;8.20;99.90
10964;DHT22;5534;48.784;9.190;2024-01-07T01:21:38;8.10;99.90
10964;DHT22;5534;48.784;9.190;2024-01-07T01:24:04;8.20;99.90
10964;DHT22;5534;48.784;9.190;2024-01-07T01:26:30;8.10;99.90
10964;DHT22;5534;48.784;9.190;2024-01-07T01:28:55;8.10;99.90
10964;DHT22;5534;48.784;9.190;2024-01-07T01:31:21;8.10;99.90
10964;DHT22;5534;48.784;9.190;2024-01-07T01:33:47;8.20;99.90
10964;DHT22;5534;48.784;9.190;2024-01-07T01:36:13;8.20;99.90
10964;DHT22;5534;48.784;9.190;2024-01-07T01:38:38;8.20;99.90
10964;DHT22;5534;48.784;9.190;2024-01-07T01:41:04;8.20;99.90
10964;DHT22;5534;48.784;9.190;2024-01-07T01:43:30;8.20;99.90
10964;DHT22;5534;48.784;9.190;2024-01-07T01:45:56;8.10;99.90
10964;DHT22;5534;48.784;9.190;2024-01-07T01:48:23;8.20;99.90
10964;DHT22;5534;48.784;9.190;2024-01-07T01:50:49;8.20;99.90
10964;DHT22;5534;48.784;9.190;2024-01-07T01:53:16;8.30;99.90
10964;DHT22;5534;48.784;9.190;2024-01-07T01:55:43;8.20;99.90
10964;DHT22;5534;48.784;9.190;2024-01-07T01:58:09;8.20;99.90
10964;DHT22;5534;48.784;9.190;2024-01-07T02:00:35;8.20;99.90
10964;DHT22;5534;48.784;9.190;2024-01-07T02:03:01;8.10;99.90
10964;DHT22;5534;48.784;9.190;2024-01-07T02:05:27;8.10;99.90
10964;DHT22;5534;48.784;9.190;2024-01-07T02:07:54;8.20;99.90
10964;DHT22;5534;48.784;9.190;2024-01-07T02:10:22;8.10;99.90
10964;DHT22;5534;48.784;9.190;2024-01-07T02:12:48;8.20;99.90
10964;DHT22;5534;48.784;9.190;2024-01-07T02:15:14;8.30;99.90
10964;DHT22;5534;48.784;9.190;2024-01-07T02:17:40;8.30;99.90
10964;DHT22;5534;48.784;9.190;2024-01-07T02:20:06;8.30;99.90
10964;DHT22;5534;48.784;9.190;2024-01-07T02:22:32;8.20;99.90
10964;DHT22;5534;48.784;9.190;2024-01-07T02:24:58;8.20;99.90
10964;DHT22;5534;48.784;9.190;2024-01-07T02:27:24;8.10;99.90
10964;DHT22;5534;48.784;9.190;2024-01-07T02:29:49;8.10;99.90
10964;DHT22;5534;48.784;9.190;2024-01-07T02:32:15;8.10;99.90
10964;DHT22;5534;48.784;9.190;2024-01-07T02:34:41;8.10;99.90
10964;DHT22;5534;48.784;9.190;2024-01-07T02:37:07;8.10;99.90
10964;DHT22;5534;48.784;9.190;2024-01-07T02:39:32;8.20;99.90
10964;DHT22;5534;48.784;9.190;2024-01-07T02:41:58;8.20;99.90
10964;DHT22;5534;48.784;9.190;2024-01-07T02:44:24;8.10;99.90
10964;DHT22;5534;48.784;9.190;2024-01-07T02:46:49;8.10;99.90
10964;DHT22;5534;48.784;9.190;2024-01-07T02:49:24;8.10;99.90
10964;DHT22;5534;48.784;9.190;2024-01-07T02:51:49;8.10;99.90
10964;DHT22;5534;48.784;9.190;2024-01-07T02:54:15;8.00;99.90
10964;DHT22;5534;48.784;9.190;2024-01-07T02:56:41;8.10;99.90
10964;DHT22;5534;48.784;9.190;2024-01-07T02:59:07;8.10;99.90
10964;DHT22;5534;48.784;9.190;2024-01-07T03:01:33;8.20;99.90
10964;DHT22;5534;48.784;9.190;2024-01-07T03:04:06;8.10;99.90
10964;DHT22;5534;48.784;9.190;2024-01-07T03:06:32;8.00;99.90
10964;DHT22;5534;48.784;9.190;2024-01-07T03:08:58;8.10;99.90
10964;DHT22;5534;48.784;9.190;2024-01-07T03:11:23;8.10;99.90
10964;DHT22;5534;48.784;9.190;2024-01-07T03:13:49;8.10;99.90
10964;DHT22;5534;48.784;9.190;2024-01-07T03:16:25;8.20;99.90
10964;DHT22;5534;48.784;9.190;2024-01-07T03:18:51;8.20;99.90
10964;DHT22;5534;48.784;9.190;2024-01-07T03:21:22;8.20;99.90
10964;DHT22;5534;48.784;9.190;2024-01-07T03:23:49;8.20;99.90
10964;DHT22;5534;48.784;9.190;2024-01-07T03:26:17;8.20;99.90
10964;DHT22;5534;48.784;9.190;2024-01-07T03:28:43;8.10;99.90
10964;DHT22;5534;48.784;9.190;2024-01-07T03:31:12;8.10;99.90
10964;DHT22;5534;48.784;9.190;2024-01-07T03:33:39;8.10;99.90
10964;DHT22;5534;48.784;9.190;2024-01-07T03:36:09;8.20;99.90
10964;DHT22;5534;48.784;9.190;2024-01-07T03:38:36;8.20;99.90
10964;DHT22;5534;48.784;9.190;2024-01-07T03:41:02;8.10;99.90
10964;DHT22;5534;48.784;9.190;2024-01-07T03:43:28;8.20;99.90
10964;DHT22;5534;48.784;9.190;2024-01-07T03:45:54;8.20;99.90
10964;DHT22;5534;48.784;9.190;2024-01-07T03:48:19;8.10;99.90
10964;DHT22;5534;48.784;9.190;2024-01-07T03:50:45;8.10;99.90
10964;DHT22;5534;48.784;9.190;2024-01-07T03:53:13;8.10;99.90
10964;DHT22;5534;48.784;9.190;2024-01-07T03:55:39;8.10;99.90
10964;DHT22;5534;48.784;9.190;2024-01-07T03:58:05;8.10;99.90
10964;DHT22;5534;48.784;9.190;2024-01-07T04:00:31;8.00;99.90
10964;DHT22;5534;48.784;9.190;2024-01-07T04:02:57;8.00;99.90
10964;DHT22;5534;48.784;9.190;2024-01-07T04:05:23;8.00;99.90
10964;DHT22;5534;48.784;9.190;2024-01-07T04:07:48;8.10;99.90
10964;DHT22;5534;48.784;9.190;2024-01-07T04:10:16;8.10;99.90
10964;DHT22;5534;48.784;9.190;2024-01-07T04:12:42;8.10;99.90
10964;DHT22;5534;48.784;9.190;2024-01-07T04:15:08;8.00;99.90
10964;DHT22;5534;48.784;9.190;2024-01-07T04:17:34;8.10;99.90
10964;DHT22;5534;48.784;9.190;2024-01-07T04:20:00;7.90;99.90
10964;DHT22;5534;48.784;9.190;2024-01-07T04:22:25;8.00;99.90
10964;DHT22;5534;48.784;9.190;2024-01-07T04:24:51;8.10;99.90
10964;DHT22;5534;48.784;9.190;2024-01-07T04:27:17;8.10;99.90
10964;DHT22;5534;48.784;9.190;2024-01-07T04:29:43;8.10;99.90
10964;DHT22;5534;48.784;9.190;2024-01-07T04:32:08;8.10;99.90
10964;DHT22;5534;48.784;9.190;2024-01-07T04:34:34;8.10;99.90
10964;DHT22;5534;48.784;9.190;2024-01-07T04:37:00;8.10;99.90
10964;DHT22;5534;48.784;9.190;2024-01-07T04:39:25;8.00;99.90
10964;DHT22;5534;48.784;9.190;2024-01-07T04:41:51;8.00;99.90
10964;DHT22;5534;48.784;9.190;2024-01-07T04:44:17;8.00;99.90
10964;DHT22;5534;48.784;9.190;2024-01-07T04:46:43;8.00;99.90
10964;DHT22;5534;48.784;9.190;2024-01-07T04:49:09;8.10;99.90
10964;DHT22;5534;48.784;9.190;2024-01-07T04:51:35;8.00;99.90
10964;DHT22;5534;48.784;9.190;2024-01-07T04:54:02;8.00;99.90
10964;DHT22;5534;48.784;9.190;2024-01-07T04:56:27;8.00;99.90
10964;DHT22;5534;48.784;9.190;2024-01-07T04:58:53;7.90;99.90
10964;DHT22;5534;48.784;9.190;2024-01-07T05:01:19;7.80;99.90
10964;DHT22;5534;48.784;9.190;2024-01-07T05:03:45;7.80;99.90
10964;DHT22;5534;48.784;9.190;2024-01-07T05:06:11;7.80;99.90
10964;DHT22;5534;48.784;9.190;2024-01-07T05:08:37;7.80;99.90
10964;DHT22;5534;48.784;9.190;2024-01-07T05:11:03;7.80;99.90
10964;DHT22;5534;48.784;9.190;2024-01-07T05:13:30;7.80;99.90
10964;DHT22;5534;48.784;9.190;2024-01-07T05:15:56;7.80;99.90
10964;DHT22;5534;48.784;9.190;2024-01-07T05:18:24;7.80;99.90
10964;DHT22;5534;48.784;9.190;2024-01-07T05:20:50;7.70;99.90
10964;DHT22;5534;48.784;9.190;2024-01-07T05:23:16;7.70;99.90
10964;DHT22;5534;48.784;9.190;2024-01-07T05:25:45;7.70;99.90
10964;DHT22;5534;48.784;9.190;2024-01-07T05:28:14;7.70;99.90
10964;DHT22;5534;48.784;9.190;2024-01-07T05:30:43;7.60;99.90
10964;DHT22;5534;48.784;9.190;2024-01-07T05:33:09;7.60;99.90
10964;DHT22;5534;48.784;9.190;2024-01-07T05:35:35;7.70;99.90
10964;DHT22;5534;48.784;9.190;2024-01-07T05:38:01;7.80;99.90
10964;DHT22;5534;48.784;9.190;2024-01-07T05:40:27;7.80;99.90
10964;DHT22;5534;48.784;9.190;2024-01-07T05:42:53;7.70;99.90
10964;DHT22;5534;48.784;9.190;2024-01-07T05:45:19;7.80;99.90
10964;DHT22;5534;48.784;9.190;2024-01-07T05:47:45;7.80;99.90
10964;DHT22;5534;48.784;9.190;2024-01-07T05:50:11;7.80;99.90
10964;DHT22;5534;48.784;9.190;2024-01-07T05:52:41;7.80;99.90
10964;DHT22;5534;48.784;9.190;2024-01-07T05:55:07;7.80;99.90
10964;DHT22;5534;48.784;9.190;2024-01-07T05:57:32;7.80;99.90
10964;DHT22;5534;48.784;9.190;2024-01-07T05:59:58;7.80;99.90
10964;DHT22;5534;48.784;9.190;2024-01-07T06:02:24;7.70;99.90
10964;DHT22;5534;48.784;9.190;2024-01-07T06:04:50;7.80;99.90
10964;DHT22;5534;48.784;9.190;2024-01-07T06:07:16;7.80;99.90
10964;DHT22;5534;48.784;9.190;2024-01-07T06:09:42;7.80;99.90
10964;DHT22;5534;48.784;9.190;2024-01-07T06:12:07;7.70;99.90
10964;DHT22;5534;48.784;9.190;2024-01-07T06:14:33;7.70;99.90
10964;DHT22;5534;48.784;9.190;2024-01-07T06:16:59;7.70;99.90
10964;DHT22;5534;48.784;9.190;2024-01-07T06:19:24;7.70;99.90
10964;DHT22;5534;48.784;9.190;2024-01-07T06:21:50;7.80;99.90
10964;DHT22;5534;48.784;9.190;2024-01-07T06:24:16;7.80;99.90
10964;DHT22;5534;48.784;9.190;2024-01-07T06:26:41;7.70;99.90
10964;DHT22;5534;48.784;9.190;2024-01-07T06:29:07;7.80;99.90
10964;DHT22;5534;48.784;9.190;2024-01-07T06:31:35;7.80;99.90
10964;DHT22;5534;48.784;9.190;2024-01-07T06:34:00;7.80;99.90
10964;DHT22;5534;48.784;9.190;2024-01-07T06:36:26;7.80;99.90
10964;DHT22;5534;48.784;9.190;2024-01-07T06:38:52;7.80;99.90
10964;DHT22;5534;48.784;9.190;2024-01-07T06:41:18;7.80;99.90
10964;DHT22;5534;48.784;9.190;2024-01-07T06:43:44;7.90;99.90
10964;DHT22;5534;48.784;9.190;2024-01-07T06:46:11;7.90;99.90
10964;DHT22;5534;48.784;9.190;2024-01-07T06:48:37;7.90;99.90
10964;DHT22;5534;48.784;9.190;2024-01-07T06:51:02;7.80;99.90
10964;DHT22;5534;48.784;9.190;2024-01-07T06:53:28;7.80;99.90
10964;DHT22;5534;48.784;9.190;2024-01-07T06:55:54;7.70;99.90
10964;DHT22;5534;48.784;9.190;2024-01-07T06:58:20;7.60;99.90
10964;DHT22;5534;48.784;9.190;2024-01-07T07:00:45;7.70;99.90
10964;DHT22;5534;48.784;9.190;2024-01-07T07:03:11;7.60;99.90
10964;DHT22;5534;48.784;9.190;2024-01-07T07:05:37;7.80;99.90
10964;DHT22;5534;48.784;9.190;2024-01-07T07:08:03;7.70;99.90
10964;DHT22;5534;48.784;9.190;2024-01-07T07:10:29;7.70;99.90
10964;DHT22;5534;48.784;9.190;2024-01-07T07:12:55;7.70;99.90
10964;DHT22;5534;48.784;9.190;2024-01-07T07:15:20;7.70;99.90
10964;DHT22;5534;48.784;9.190;2024-01-07T07:17:46;7.60;99.90
10964;DHT22;5534;48.784;9.190;2024-01-07T07:20:12;7.60;99.90
10964;DHT22;5534;48.784;9.190;2024-01-07T07:22:38;7.60;99.90
10964;DHT22;5534;48.784;9.190;2024-01-07T07:25:04;7.60;99.90
10964;DHT22;5534;48.784;9.190;2024-01-07T07:27:31;7.50;99.90
10964;DHT22;5534;48.784;9.190;2024-01-07T07:29:56;7.50;99.90
10964;DHT22;5534;48.784;9.190;2024-01-07T07:32:22;7.50;99.90
10964;DHT22;5534;48.784;9.190;2024-01-07T07:34:48;7.50;99.90
10964;DHT22;5534;48.784;9.190;2024-01-07T07:37:14;7.40;99.90
10964;DHT22;5534;48.784;9.190;2024-01-07T07:39:39;7.40;99.90
10964;DHT22;5534;48.784;9.190;2024-01-07T07:42:05;7.30;99.90
10964;DHT22;5534;48.784;9.190;2024-01-07T07:44:31;7.20;99.90
10964;DHT22;5534;48.784;9.190;2024-01-07T07:46:57;7.30;99.90
10964;DHT22;5534;48.784;9.190;2024-01-07T07:49:22;7.40;99.90
10964;DHT22;5534;48.784;9.190;2024-01-07T07:51:48;7.40;99.90
10964;DHT22;5534;48.784;9.190;2024-01-07T07:54:14;7.30;99.90
10964;DHT22;5534;48.784;9.190;2024-01-07T07:56:39;7.30;99.90
10964;DHT22;5534;48.784;9.190;2024-01-07T07:59:05;7.30;99.90
10964;DHT22;5534;48.784;9.190;2024-01-07T08:01:31;7.30;99.90
10964;DHT22;5534;48.784;9.190;2024-01-07T08:03:56;7.30;99.90
10964;DHT22;5534;48.784;9.190;2024-01-07T08:06:22;7.30;99.90
10964;DHT22;5534;48.784;9.190;2024-01-07T08:08:48;7.40;99.90
10964;DHT22;5534;48.784;9.190;2024-01-07T08:11:14;7.30;99.90
10964;DHT22;5534;48.784;9.190;2024-01-07T08:13:40;7.20;99.90
10964;DHT22;5534;48.784;9.190;2024-01-07T08:16:06;7.20;99.90
10964;DHT22;5534;48.784;9.190;2024-01-07T08:18:32;7.20;99.90
10964;DHT22;5534;48.784;9.190;2024-01-07T08:20:58;7.20;99.90
10964;DHT22;5534;48.784;9.190;2024-01-07T08:23:27;7.30;99.90
10964;DHT22;5534;48.784;9.190;2024-01-07T08:25:52;7.20;99.90
10964;DHT22;5534;48.784;9.190;2024-01-07T08:28:18;7.30;99.90
10964;DHT22;5534;48.784;9.190;2024-01-07T08:30:46;7.10;99.90
10964;DHT22;5534;48.784;9.190;2024-01-07T08:33:11;7.20;99.90
10964;DHT22;5534;48.784;9.190;2024-01-07T08:35:37;7.20;99.90
10964;DHT22;5534;48.784;9.190;2024-01-07T08:38:03;7.10;99.90
10964;DHT22;5534;48.784;9.190;2024-01-07T08:40:29;7.10;99.90
10964;DHT22;5534;48.784;9.190;2024-01-07T08:42:55;7.20;99.90
10964;DHT22;5534;48.784;9.190;2024-01-07T08:45:21;7.20;99.90
10964;DHT22;5534;48.784;9.190;2024-01-07T08:47:48;7.20;99.90
10964;DHT22;5534;48.784;9.190;2024-01-07T08:50:14;7.30;99.90
10964;DHT22;5534;48.784;9.190;2024-01-07T08:52:39;7.20;99.90
10964;DHT22;5534;48.784;9.190;2024-01-07T08:55:05;7.10;99.90
10964;DHT22;5534;48.784;9.190;2024-01-07T08:57:33;7.10;99.90
10964;DHT22;5534;48.784;9.190;2024-01-07T08:59:58;7.10;99.90
10964;DHT22;5534;48.784;9.190;2024-01-07T09:02:24;7.10;99.90
10964;DHT22;5534;48.784;9.190;2024-01-07T09:04:51;7.20;99.90
10964;DHT22;5534;48.784;9.190;2024-01-07T09:07:17;7.20;99.90
10964;DHT22;5534;48.784;9.190;2024-01-07T09:09:47;7.10;99.90
10964;DHT22;5534;48.784;9.190;2024-01-07T09:12:13;7.10;99.90
10964;DHT22;5534;48.784;9.190;2024-01-07T09:14:39;7.10;99.90
10964;DHT22;5534;48.784;9.190;2024-01-07T09:17:05;7.10;99.90
10964;DHT22;5534;48.784;9.190;2024-01-07T09:19:31;7.10;99.90
10964;DHT22;5534;48.784;9.190;2024-01-07T09:21:57;7.20;99.90
10964;DHT22;5534;48.784;9.190;2024-01-07T09:24:23;7.20;99.90
10964;DHT22;5534;48.784;9.190;2024-01-07T09:26:49;7.20;99.90
10964;DHT22;5534;48.784;9.190;2024-01-07T09:29:17;7.20;99.90
10964;DHT22;5534;48.784;9.190;2024-01-07T09:31:43;7.20;99.90
10964;DHT22;5534;48.784;9.190;2024-01-07T09:34:08;7.30;99.90
10964;DHT22;5534;48.784;9.190;2024-01-07T09:36:34;7.30;99.90
10964;DHT22;5534;48.784;9.190;2024-01-07T09:39:01;7.30;99.90
10964;DHT22;5534;48.784;9.190;2024-01-07T09:41:30;7.20;99.90
10964;DHT22;5534;48.784;9.190;2024-01-07T09:43:56;7.10;99.90
10964;DHT22;5534;48.784;9.190;2024-01-07T09:46:24;7.00;99.90
10964;DHT22;5534;48.784;9.190;2024-01-07T09:48:51;7.00;99.90
10964;DHT22;5534;48.784;9.190;2024-01-07T09:51:20;7.00;99.90
10964;DHT22;5534;48.784;9.190;2024-01-07T09:53:50;7.00;99.90
10964;DHT22;5534;48.784;9.190;2024-01-07T09:56:26;7.00;99.90
10964;DHT22;5534;48.784;9.190;2024-01-07T09:58:54;7.10;99.90
10964;DHT22;5534;48.784;9.190;2024-01-07T10:01:20;7.10;99.90
10964;DHT22;5534;48.784;9.190;2024-01-07T10:03:46;7.10;99.90
10964;DHT22;5534;48.784;9.190;2024-01-07T10:06:12;7.10;99.90
10964;DHT22;5534;48.784;9.190;2024-01-07T10:08:38;7.10;99.90
10964;DHT22;5534;48.784;9.190;2024-01-07T10:11:04;7.00;99.90
10964;DHT22;5534;48.784;9.190;2024-01-07T10:13:30;7.10;99.90
10964;DHT22;5534;48.784;9.190;2024-01-07T10:15:56;7.10;99.90
10964;DHT22;5534;48.784;9.190;2024-01-07T10:18:22;7.00;99.90
10964;DHT22;5534;48.784;9.190;2024-01-07T10:20:49;6.90;99.90
10964;DHT22;5534;48.784;9.190;2024-01-07T10:23:22;6.80;99.90
10964;DHT22;5534;48.784;9.190;2024-01-07T10:25:48;6.90;99.90
10964;DHT22;5534;48.784;9.190;2024-01-07T10:28:13;6.90;99.90
10964;DHT22;5534;48.784;9.190;2024-01-07T10:30:48;6.90;99.90
10964;DHT22;5534;48.784;9.190;2024-01-07T10:33:17;6.80;99.90
10964;DHT22;5534;48.784;9.190;2024-01-07T10:35:48;6.80;99.90
10964;DHT22;5534;48.784;9.190;2024-01-07T10:38:17;6.70;99.90
10964;DHT22;5534;48.784;9.190;2024-01-07T10:40:44;6.80;99.90
10964;DHT22;5534;48.784;9.190;2024-01-07T10:43:13;6.70;99.90
10964;DHT22;5534;48.784;9.190;2024-01-07T10:45:39;6.80;99.90
10964;DHT22;5534;48.784;9.190;2024-01-07T10:48:06;6.80;99.90
10964;DHT22;5534;48.784;9.190;2024-01-07T10:50:33;6.70;99.90
10964;DHT22;5534;48.784;9.190;2024-01-07T10:53:04;6.70;99.90
10964;DHT22;5534;48.784;9.190;2024-01-07T10:55:34;6.60;99.90
10964;DHT22;5534;48.784;9.190;2024-01-07T10:58:03;6.60;99.90
10964;DHT22;5534;48.784;9.190;2024-01-07T11:00:29;6.70;99.90
10964;DHT22;5534;48.784;9.190;2024-01-07T11:03:25;6.80;99.90
10964;DHT22;5534;48.784;9.190;2024-01-07T11:05:58;6.70;99.90
10964;DHT22;5534;48.784;9.190;2024-01-07T11:08:34;6.60;99.90
10964;DHT22;5534;48.784;9.190;2024-01-07T11:11:16;6.50;99.90
10964;DHT22;5534;48.784;9.190;2024-01-07T11:13:43;6.50;99.90
10964;DHT22;5534;48.784;9.190;2024-01-07T11:16:10;6.50;99.90
10964;DHT22;5534;48.784;9.190;2024-01-07T11:18:46;6.60;99.90
10964;DHT22;5534;48.784;9.190;2024-01-07T11:21:22;6.60;99.90
10964;DHT22;5534;48.784;9.190;2024-01-07T11:23:50;6.60;99.90
10964;DHT22;5534;48.784;9.190;2024-01-07T11:26:18;6.70;99.90
10964;DHT22;5534;48.784;9.190;2024-01-07T11:31:12;6.70;99.90
10964;DHT22;5534;48.784;9.190;2024-01-07T11:33:39;6.60;99.90
10964;DHT22;5534;48.784;9.190;2024-01-07T11:36:05;6.70;99.90
10964;DHT22;5534;48.784;9.190;2024-01-07T11:38:31;6.80;99.90
10964;DHT22;5534;48.784;9.190;2024-01-07T11:40:57;6.70;99.90
10964;DHT22;5534;48.784;9.190;2024-01-07T11:43:25;6.70;99.90
10964;DHT22;5534;48.784;9.190;2024-01-07T11:45:50;6.70;99.90
10964;DHT22;5534;48.784;9.190;2024-01-07T11:48:18;6.70;99.90
10964;DHT22;5534;48.784;9.190;2024-01-07T11:50:44;6.70;99.90
10964;DHT22;5534;48.784;9.190;2024-01-07T11:53:12;6.60;99.90
10964;DHT22;5534;48.784;9.190;2024-01-07T11:55:38;6.60;99.90
10964;DHT22;5534;48.784;9.190;2024-01-07T11:58:04;6.50;99.90
10964;DHT22;5534;48.784;9.190;2024-01-07T12:00:33;6.50;99.90
10964;DHT22;5534;48.784;9.190;2024-01-07T12:03:03;6.50;99.90
10964;DHT22;5534;48.784;9.190;2024-01-07T12:05:30;6.60;99.90
10964;DHT22;5534;48.784;9.190;2024-01-07T12:07:56;6.50;99.90
10964;DHT22;5534;48.784;9.190;2024-01-07T12:10:23;6.50;99.90
10964;DHT22;5534;48.784;9.190;2024-01-07T12:12:50;6.50;99.90
10964;DHT22;5534;48.784;9.190;2024-01-07T12:15:20;6.50;99.90
10964;DHT22;5534;48.784;9.190;2024-01-07T12:17:58;6.50;99.90
10964;DHT22;5534;48.784;9.190;2024-01-07T12:20:27;6.60;99.90
10964;DHT22;5534;48.784;9.190;2024-01-07T12:22:56;6.60;99.90
10964;DHT22;5534;48.784;9.190;2024-01-07T12:25:22;6.60;99.90
10964;DHT22;5534;48.784;9.190;2024-01-07T12:27:51;6.50;99.90
10964;DHT22;5534;48.784;9.190;2024-01-07T12:30:20;6.30;99.90
10964;DHT22;5534;48.784;9.190;2024-01-07T12:32:47;6.20;99.90
10964;DHT22;5534;48.784;9.190;2024-01-07T12:35:13;6.10;99.90
10964;DHT22;5534;48.784;9.190;2024-01-07T12:37:39;6.30;99.90
10964;DHT22;5534;48.784;9.190;2024-01-07T12:40:05;6.40;99.90
10964;DHT22;5534;48.784;9.190;2024-01-07T12:42:34;6.40;99.90
10964;DHT22;5534;48.784;9.190;2024-01-07T12:45:01;6.30;99.90
10964;DHT22;5534;48.784;9.190;2024-01-07T12:47:27;6.20;99.90
10964;DHT22;5534;48.784;9.190;2024-01-07T12:49:52;6.30;99.90
10964;DHT22;5534;48.784;9.190;2024-01-07T12:52:18;6.10;99.90
10964;DHT22;5534;48.784;9.190;2024-01-07T12:54:44;6.10;99.90
10964;DHT22;5534;48.784;9.190;2024-01-07T12:57:10;6.00;99.90
10964;DHT22;5534;48.784;9.190;2024-01-07T12:59:35;5.90;99.90
10964;DHT22;5534;48.784;9.190;2024-01-07T13:02:01;5.90;99.90
10964;DHT22;5534;48.784;9.190;2024-01-07T13:04:28;5.90;99.90
10964;DHT22;5534;48.784;9.190;2024-01-07T13:06:54;6.00;99.90
10964;DHT22;5534;48.784;9.190;2024-01-07T13:09:20;6.20;99.90
10964;DHT22;5534;48.784;9.190;2024-01-07T13:11:46;6.10;99.90
10964;DHT22;5534;48.784;9.190;2024-01-07T13:14:12;6.00;99.90
10964;DHT22;5534;48.784;9.190;2024-01-07T13:16:37;6.00;99.90
10964;DHT22;5534;48.784;9.190;2024-01-07T13:19:03;6.00;99.90
10964;DHT22;5534;48.784;9.190;2024-01-07T13:21:29;5.90;99.90
10964;DHT22;5534;48.784;9.190;2024-01-07T13:23:55;6.00;99.90
10964;DHT22;5534;48.784;9.190;2024-01-07T13:26:22;6.10;99.90
10964;DHT22;5534;48.784;9.190;2024-01-07T13:28:48;6.00;99.90
10964;DHT22;5534;48.784;9.190;2024-01-07T13:31:14;6.10;99.90
10964;DHT22;5534;48.784;9.190;2024-01-07T13:33:41;6.10;99.90
10964;DHT22;5534;48.784;9.190;2024-01-07T13:36:07;5.90;99.90
10964;DHT22;5534;48.784;9.190;2024-01-07T13:38:35;5.80;99.90
10964;DHT22;5534;48.784;9.190;2024-01-07T13:41:04;5.80;99.90
10964;DHT22;5534;48.784;9.190;2024-01-07T13:43:30;5.90;99.90
10964;DHT22;5534;48.784;9.190;2024-01-07T13:45:56;6.00;99.90
10964;DHT22;5534;48.784;9.190;2024-01-07T13:48:21;6.00;99.90
10964;DHT22;5534;48.784;9.190;2024-01-07T13:50:47;6.00;99.90
10964;DHT22;5534;48.784;9.190;2024-01-07T13:53:15;6.00;99.90
10964;DHT22;5534;48.784;9.190;2024-01-07T13:55:41;6.00;99.90
10964;DHT22;5534;48.784;9.190;2024-01-07T13:58:06;6.10;99.90
10964;DHT22;5534;48.784;9.190;2024-01-07T14:00:32;6.20;99.90
10964;DHT22;5534;48.784;9.190;2024-01-07T14:02:58;6.00;99.90
10964;DHT22;5534;48.784;9.190;2024-01-07T14:05:24;5.80;99.90
10964;DHT22;5534;48.784;9.190;2024-01-07T14:07:49;5.80;99.90
10964;DHT22;5534;48.784;9.190;2024-01-07T14:10:16;5.90;99.90
10964;DHT22;5534;48.784;9.190;2024-01-07T14:12:41;5.80;99.90
10964;DHT22;5534;48.784;9.190;2024-01-07T14:15:08;5.80;99.90
10964;DHT22;5534;48.784;9.190;2024-01-07T14:17:34;5.80;99.90
10964;DHT22;5534;48.784;9.190;2024-01-07T14:20:00;5.80;99.90
10964;DHT22;5534;48.784;9.190;2024-01-07T14:22:26;5.80;99.90
10964;DHT22;5534;48.784;9.190;2024-01-07T14:24:51;5.90;99.90
10964;DHT22;5534;48.784;9.190;2024-01-07T14:27:17;5.80;99.90
10964;DHT22;5534;48.784;9.190;2024-01-07T14:29:44;5.70;99.90
10964;DHT22;5534;48.784;9.190;2024-01-07T14:32:11;5.70;99.90
10964;DHT22;5534;48.784;9.190;2024-01-07T14:34:41;5.70;99.90
10964;DHT22;5534;48.784;9.190;2024-01-07T14:37:10;5.80;99.90
10964;DHT22;5534;48.784;9.190;2024-01-07T14:39:36;5.60;99.90
10964;DHT22;5534;48.784;9.190;2024-01-07T14:42:02;5.50;99.90
10964;DHT22;5534;48.784;9.190;2024-01-07T14:44:29;5.40;99.90
10964;DHT22;5534;48.784;9.190;2024-01-07T14:46:55;5.30;99.90
10964;DHT22;5534;48.784;9.190;2024-01-07T14:49:21;5.30;99.90
10964;DHT22;5534;48.784;9.190;2024-01-07T14:51:47;5.30;99.90
10964;DHT22;5534;48.784;9.190;2024-01-07T14:54:13;5.40;99.90
10964;DHT22;5534;48.784;9.190;2024-01-07T14:56:38;5.30;99.90
10964;DHT22;5534;48.784;9.190;2024-01-07T14:59:05;5.30;99.90
10964;DHT22;5534;48.784;9.190;2024-01-07T15:01:31;5.30;99.90
10964;DHT22;5534;48.784;9.190;2024-01-07T15:03:57;5.30;99.90
10964;DHT22;5534;48.784;9.190;2024-01-07T15:06:23;5.30;99.90
10964;DHT22;5534;48.784;9.190;2024-01-07T15:08:50;5.30;99.90
10964;DHT22;5534;48.784;9.190;2024-01-07T15:11:16;5.30;99.90
10964;DHT22;5534;48.784;9.190;2024-01-07T15:13:43;5.20;99.90
10964;DHT22;5534;48.784;9.190;2024-01-07T15:16:09;5.10;99.90
10964;DHT22;5534;48.784;9.190;2024-01-07T15:18:35;5.00;99.90
10964;DHT22;5534;48.784;9.190;2024-01-07T15:21:03;5.10;99.90
10964;DHT22;5534;48.784;9.190;2024-01-07T15:23:29;4.90;99.90
10964;DHT22;5534;48.784;9.190;2024-01-07T15:25:55;5.00;99.90
10964;DHT22;5534;48.784;9.190;2024-01-07T15:28:21;5.10;99.90
10964;DHT22;5534;48.784;9.190;2024-01-07T15:30:47;5.20;99.90
10964;DHT22;5534;48.784;9.190;2024-01-07T15:33:14;5.20;99.90
10964;DHT22;5534;48.784;9.190;2024-01-07T15:35:39;5.20;99.90
10964;DHT22;5534;48.784;9.190;2024-01-07T15:38:05;5.20;99.90
10964;DHT22;5534;48.784;9.190;2024-01-07T15:40:31;5.00;99.90
10964;DHT22;5534;48.784;9.190;2024-01-07T15:42:58;5.00;99.90
10964;DHT22;5534;48.784;9.190;2024-01-07T15:45:25;5.00;99.90
10964;DHT22;5534;48.784;9.190;2024-01-07T15:47:53;5.10;99.90
10964;DHT22;5534;48.784;9.190;2024-01-07T15:50:19;5.10;99.90
10964;DHT22;5534;48.784;9.190;2024-01-07T15:52:45;5.00;99.90
10964;DHT22;5534;48.784;9.190;2024-01-07T15:55:15;5.00;99.90
10964;DHT22;5534;48.784;9.190;2024-01-07T15:57:41;5.00;99.90
10964;DHT22;5534;48.784;9.190;2024-01-07T16:00:12;4.90;99.90